Time;durP1;ratioP1;P1;durP2;ratioP2;P2;SDS_P1;SDS_P2;PMS_P1;PMS_P2;Temp;Humidity;BMP_temperature;BMP_pressure;BME280_temperature;BME280_humidity;BME280_pressure;Samples;Min_cycle;Max_cycle;Signal;HPM_P1;HPM_P2
2023/04/13 00:04:08;;;;;;;4.97;1.27;;;;;;;16.19;58.49;95644.47;10409584;28;20373;-30
2023/04/13 00:09:08;;;;;;;2.30;0.68;;;;;;;16.23;58.29;95645.28;10420334;28;20296;-28
2023/04/13 00:14:09;;;;;;;2.77;0.60;;;;;;;16.20;58.03;95648.69;10409424;28;20049;-29
2023/04/13 00:19:09;;;;;;;4.28;1.05;;;;;;;16.21;58.53;95642.78;10409001;28;20087;-29
2023/04/13 00:24:10;;;;;;;4.37;1.00;;;;;;;16.20;58.09;95646.16;10417311;28;20033;-29
2023/04/13 00:29:11;;;;;;;2.83;0.70;;;;;;;16.23;58.60;95627.63;10425138;28;20349;-28
2023/04/13 00:34:11;;;;;;;3.28;0.63;;;;;;;16.24;58.87;95625.09;10411058;28;20045;-28
2023/04/13 00:39:12;;;;;;;2.70;1.00;;;;;;;16.22;57.92;95629.31;10408935;28;20772;-28
2023/04/13 00:44:14;;;;;;;4.95;0.80;;;;;;;16.22;57.64;95631.84;10414690;28;20022;-29
2023/04/13 00:49:16;;;;;;;3.78;1.27;;;;;;;16.22;58.41;95626.81;10440317;28;20575;-29
2023/04/13 00:54:17;;;;;;;1.83;0.82;;;;;;;16.17;58.38;95615.88;10408372;28;20036;-29
2023/04/13 00:59:24;;;;;;;3.45;0.88;;;;;;;16.17;57.85;95620.94;10414891;28;20418;-29
2023/04/13 01:04:29;;;;;;;4.28;1.05;;;;;;;16.19;58.10;95629.34;10431693;28;20038;-29
2023/04/13 01:09:40;;;;;;;2.10;0.63;;;;;;;16.19;58.10;95626.00;10415967;28;20460;-29
2023/04/13 01:14:53;;;;;;;2.83;0.68;;;;;;;16.20;57.94;95628.47;10414601;28;20083;-28
2023/04/13 01:20:00;;;;;;;2.15;0.52;;;;;;;16.19;58.12;95636.09;10418873;28;20034;-28
2023/04/13 01:25:07;;;;;;;2.13;0.70;;;;;;;16.18;58.36;95642.00;10418432;28;20041;-28
2023/04/13 01:30:09;;;;;;;1.55;0.65;;;;;;;16.17;58.00;95628.50;10413858;28;20041;-28
2023/04/13 01:35:13;;;;;;;2.97;0.98;;;;;;;16.18;57.82;95625.13;10465973;28;20033;-29
2023/04/13 01:40:14;;;;;;;2.75;1.27;;;;;;;16.16;58.24;95611.69;10429051;28;20034;-29
2023/04/13 01:46:15;;;;;;;2.08;0.73;;;;;;;16.20;58.57;95623.44;10447298;28;20483;-28
2023/04/13 01:51:44;;;;;;;2.25;0.75;;;;;;;16.19;58.49;95629.34;10416311;28;20043;-28
2023/04/13 01:56:47;;;;;;;1.75;0.77;;;;;;;16.18;58.04;95630.19;10413541;28;20080;-29
2023/04/13 02:01:48;;;;;;;1.48;0.70;;;;;;;16.19;57.71;95634.38;10422388;28;20403;-29
2023/04/13 02:06:50;;;;;;;1.88;0.85;;;;;;;16.17;57.90;95633.56;10412541;28;20033;-29
2023/04/13 02:11:55;;;;;;;4.68;0.70;;;;;;;16.16;58.15;95636.09;10412917;28;20087;-30
2023/04/13 02:16:56;;;;;;;3.28;0.47;;;;;;;16.16;57.81;95642.00;10438116;28;20040;-29
2023/04/13 02:21:57;;;;;;;2.35;0.80;;;;;;;16.14;57.49;95632.75;10413217;28;20061;-29
2023/04/13 02:26:57;;;;;;;1.70;0.83;;;;;;;16.15;58.29;95644.53;10419781;28;20481;-29
2023/04/13 02:31:58;;;;;;;3.80;1.07;;;;;;;16.15;57.83;95635.28;10414886;28;20021;-29
2023/04/13 02:36:59;;;;;;;2.08;0.82;;;;;;;16.16;57.84;95646.19;10413070;28;20041;-29
2023/04/13 02:42:02;;;;;;;2.50;1.15;;;;;;;16.15;57.65;95650.41;10419833;28;20075;-29
2023/04/13 02:47:05;;;;;;;2.50;1.00;;;;;;;16.15;58.18;95654.63;10437849;28;20091;-28
2023/04/13 02:52:06;;;;;;;1.67;0.75;;;;;;;16.14;58.00;95658.84;10412118;28;20373;-29
2023/04/13 02:57:17;;;;;;;1.77;0.70;;;;;;;16.10;58.26;95659.72;10432604;28;20052;-28
2023/04/13 03:02:18;;;;;;;1.77;0.57;;;;;;;16.18;57.68;95670.59;10432272;28;20032;-28
2023/04/13 03:07:19;;;;;;;1.30;0.50;;;;;;;16.19;58.42;95671.44;10410762;28;20502;-29
2023/04/13 03:12:25;;;;;;;1.52;0.77;;;;;;;16.18;58.19;95670.59;10416855;28;20136;-29
2023/04/13 03:17:30;;;;;;;1.45;0.63;;;;;;;16.19;57.81;95664.69;10425836;28;20029;-29
2023/04/13 03:22:30;;;;;;;1.42;0.50;;;;;;;16.18;57.47;95663.00;10431478;28;20565;-29
2023/04/13 03:27:35;;;;;;;1.77;0.60;;;;;;;16.17;57.13;95657.97;10440520;28;20034;-29
2023/04/13 03:32:36;;;;;;;1.20;0.63;;;;;;;16.16;57.83;95658.81;10445340;28;20025;-28
2023/04/13 03:37:41;;;;;;;1.83;0.40;;;;;;;16.14;57.63;95661.38;10423053;28;20056;-29
2023/04/13 03:42:51;;;;;;;1.63;0.63;;;;;;;16.16;57.04;95667.25;10450435;28;20034;-29
2023/04/13 03:47:51;;;;;;;2.85;0.60;;;;;;;16.19;57.01;95658.81;10416907;28;20119;-29
2023/04/13 03:52:54;;;;;;;4.03;1.35;;;;;;;16.19;57.15;95669.72;10420483;28;20691;-28
2023/04/13 03:57:55;;;;;;;0.50;0.40;;;;;;;16.21;56.56;95674.78;10457878;28;20026;-29
2023/04/13 04:03:00;;;;;;;1.85;0.60;;;;;;;16.22;56.62;95681.50;10412742;28;20397;-29
2023/04/13 04:08:08;;;;;;;3.10;0.50;;;;;;;16.23;56.26;95668.03;10418850;28;20036;-30
2023/04/13 04:13:10;;;;;;;0.93;0.43;;;;;;;16.25;56.53;95672.22;10408585;28;20033;-29
2023/04/13 04:18:16;;;;;;;1.83;0.50;;;;;;;16.26;56.69;95668.84;10415887;28;20029;-31
2023/04/13 04:23:18;;;;;;;2.13;0.80;;;;;;;16.27;57.22;95682.31;10424412;28;20033;-29
2023/04/13 04:28:29;;;;;;;0.73;0.40;;;;;;;16.26;57.27;95689.03;10414536;28;20025;-29
2023/04/13 04:33:30;;;;;;;1.17;0.57;;;;;;;16.27;56.94;95685.66;10421657;28;20159;-29
2023/04/13 04:38:31;;;;;;;0.80;0.60;;;;;;;16.27;56.93;95684.84;10408254;28;20055;-28
2023/04/13 04:43:36;;;;;;;0.95;0.50;;;;;;;16.31;56.58;95696.56;10418567;28;20032;-29
2023/04/13 04:48:37;;;;;;;1.15;0.50;;;;;;;16.31;56.59;95704.16;10456150;28;20033;-29
2023/04/13 04:53:38;;;;;;;5.13;0.60;;;;;;;16.28;57.01;95702.47;10431571;28;20029;-28
2023/04/13 04:58:41;;;;;;;1.55;0.50;;;;;;;16.27;57.31;95695.75;10425556;28;20455;-29
2023/04/13 05:03:43;;;;;;;2.47;0.80;;;;;;;16.31;56.57;95711.72;10447520;28;20021;-28
2023/04/13 05:09:05;;;;;;;7.27;0.83;;;;;;;16.24;54.90;95710.09;10415635;28;20034;-29
2023/04/13 05:14:06;;;;;;;4.10;1.10;;;;;;;16.30;55.52;95720.16;10445759;28;20025;-28
2023/04/13 05:19:07;;;;;;;2.30;0.95;;;;;;;16.27;56.09;95713.44;10416015;28;20110;-29
2023/04/13 05:24:34;;;;;;;5.10;0.93;;;;;;;16.28;56.02;95722.69;10439182;28;20065;-28
2023/04/13 05:29:39;;;;;;;4.75;1.20;;;;;;;16.28;56.09;95732.78;10429049;28;20044;-30
2023/04/13 05:34:39;;;;;;;3.97;1.35;;;;;;;16.34;56.11;95742.84;10439142;28;20045;-29
2023/04/13 05:39:50;;;;;;;5.57;1.27;;;;;;;16.33;55.41;95741.19;10418202;28;20028;-29
2023/04/13 05:44:54;;;;;;;4.60;1.20;;;;;;;16.37;54.15;95739.50;10415201;28;20110;-29
2023/04/13 05:49:54;;;;;;;3.00;1.20;;;;;;;16.32;55.03;95739.50;10415635;28;20024;-30
2023/04/13 05:54:56;;;;;;;2.63;0.80;;;;;;;16.30;55.69;95726.03;10442030;28;20291;-29
2023/04/13 05:59:57;;;;;;;2.90;1.00;;;;;;;16.32;55.57;95718.44;10431167;28;20120;-29
2023/04/13 06:05:03;;;;;;;8.48;1.20;;;;;;;16.28;54.46;95714.28;10425605;28;20071;-29
2023/04/13 06:10:05;;;;;;;9.90;1.30;;;;;;;16.31;55.11;95726.88;10429991;28;20056;-28
2023/04/13 06:15:06;;;;;;;5.10;1.10;;;;;;;16.33;55.35;95731.09;10438290;28;20547;-30
2023/04/13 06:20:07;;;;;;;8.95;1.50;;;;;;;16.36;55.28;95736.09;10470332;28;20033;-28
2023/04/13 06:25:09;;;;;;;6.82;1.40;;;;;;;16.35;56.10;95734.41;10414121;28;20075;-29
2023/04/13 06:30:11;;;;;;;4.45;1.42;;;;;;;16.36;55.85;95722.66;10447273;28;20044;-29
2023/04/13 06:35:12;;;;;;;2.50;0.85;;;;;;;16.38;55.88;95739.47;10451007;28;20044;-29
2023/04/13 06:40:19;;;;;;;4.15;1.08;;;;;;;16.41;55.34;95729.38;10436157;28;20033;-28
2023/04/13 06:45:27;;;;;;;4.03;0.93;;;;;;;16.41;56.08;95726.00;10417020;28;20026;-28
2023/04/13 06:50:29;;;;;;;3.22;0.85;;;;;;;16.42;55.72;95726.00;10410503;28;20491;-29
2023/04/13 06:55:33;;;;;;;2.30;0.70;;;;;;;16.42;55.98;95720.94;10418282;28;20037;-28
2023/04/13 07:00:33;;;;;;;5.35;1.10;;;;;;;16.41;56.34;95716.75;10418565;28;20487;-28
2023/04/13 07:05:35;;;;;;;4.05;0.98;;;;;;;16.47;55.30;95731.00;10409303;28;20032;-30
2023/04/13 07:10:41;;;;;;;2.73;1.13;;;;;;;16.43;55.52;95737.75;10445608;28;20022;-28
2023/04/13 07:15:51;;;;;;;4.88;1.05;;;;;;;16.43;55.91;95735.25;10429916;28;20116;-28
2023/04/13 07:20:51;;;;;;;3.03;0.95;;;;;;;16.44;55.64;95744.50;10443117;28;20369;-29
2023/04/13 07:25:55;;;;;;;6.78;1.20;;;;;;;16.44;55.41;95738.63;10434488;28;20028;-28
2023/04/13 07:31:01;;;;;;;4.15;1.20;;;;;;;16.44;55.64;95736.91;10417086;28;20029;-29
2023/04/13 07:36:02;;;;;;;2.85;1.00;;;;;;;16.44;55.50;95747.00;10441866;28;20554;-28
2023/04/13 07:41:05;;;;;;;6.05;0.90;;;;;;;16.41;55.42;95752.09;10453981;28;20208;-28
2023/04/13 07:46:10;;;;;;;3.55;1.08;;;;;;;16.46;55.48;95760.47;10421833;28;20084;-28
2023/04/13 07:51:18;;;;;;;2.72;0.98;;;;;;;16.46;55.37;95745.31;10408694;28;20029;-29
2023/04/13 07:56:21;;;;;;;2.17;1.20;;;;;;;16.48;55.27;95747.84;10408527;28;20026;-28
2023/04/13 08:01:23;;;;;;;6.25;2.67;;;;;;;16.49;55.23;95757.94;10434332;28;20136;-28
2023/04/13 08:06:23;;;;;;;4.00;1.15;;;;;;;16.58;55.02;95767.97;10415406;28;20135;-28
2023/04/13 08:11:24;;;;;;;4.28;1.13;;;;;;;16.66;54.79;95766.22;10424926;28;20475;-29
2023/04/13 08:16:33;;;;;;;4.82;1.00;;;;;;;16.71;54.93;95766.19;10421608;28;20392;-29
2023/04/13 08:21:37;;;;;;;8.98;1.30;;;;;;;16.73;54.64;95757.75;10413617;28;20563;-29
2023/04/13 08:26:38;;;;;;;11.77;1.40;;;;;;;16.73;55.31;95752.69;10407465;28;20450;-28
2023/04/13 08:31:39;;;;;;;11.65;2.55;;;;;;;16.74;55.43;95751.84;10409156;28;20037;-29
2023/04/13 08:36:40;;;;;;;15.57;2.38;;;;;;;16.76;54.97;95742.53;10407483;28;20060;-29
2023/04/13 08:41:46;;;;;;;19.30;2.20;;;;;;;16.77;55.50;95759.38;10407585;28;20036;-29
2023/04/13 08:46:47;;;;;;;18.25;2.47;;;;;;;16.74;56.15;95749.31;10423811;28;20036;-29
2023/04/13 08:51:54;;;;;;;22.23;2.35;;;;;;;16.77;55.89;95753.50;10445723;28;20043;-29
2023/04/13 08:56:56;;;;;;;12.15;2.22;;;;;;;16.77;55.67;95760.22;10417108;28;20036;-28
2023/04/13 09:02:03;;;;;;;15.82;2.85;;;;;;;16.79;55.89;95743.34;10435210;28;20022;-29
2023/04/13 09:07:11;;;;;;;14.70;2.75;;;;;;;16.80;55.75;95754.28;10418208;28;20025;-29
2023/04/13 09:12:13;;;;;;;28.25;3.58;;;;;;;16.80;55.81;95754.28;10420513;28;20029;-29
2023/04/13 09:17:31;;;;;;;15.27;2.15;;;;;;;16.77;56.00;95744.22;10412947;28;20025;-28
2023/04/13 09:22:32;;;;;;;13.05;2.08;;;;;;;16.80;56.29;95744.19;10414210;28;20435;-30
2023/04/13 09:27:33;;;;;;;17.80;4.60;;;;;;;16.85;56.36;95752.56;10379499;22;20068;-31
2023/04/13 09:32:34;;;;;;;15.70;1.90;;;;;;;16.84;56.33;95754.25;10332872;28;20125;-31
2023/04/13 09:37:36;;;;;;;27.08;4.68;;;;;;;16.78;56.05;95756.00;10342051;28;20034;-30
2023/04/13 09:42:39;;;;;;;8.68;2.58;;;;;;;16.80;55.46;95744.19;10349583;28;20042;-30
2023/04/13 09:47:41;;;;;;;12.52;2.40;;;;;;;16.77;55.42;95739.16;10370229;28;20037;-30
2023/04/13 09:52:41;;;;;;;9.10;2.10;;;;;;;16.73;55.87;95735.00;10358182;28;20275;-30
2023/04/13 09:57:42;;;;;;;8.02;1.90;;;;;;;16.66;55.50;95730.84;10360338;22;20061;-25
2023/04/13 10:02:43;;;;;;;7.85;1.73;;;;;;;16.66;55.02;95746.00;10330744;28;20042;-25
2023/04/13 10:07:45;;;;;;;13.37;1.90;;;;;;;16.67;54.73;95751.88;10323693;28;20034;-25
2023/04/13 10:12:48;;;;;;;10.02;2.25;;;;;;;16.66;54.93;95750.22;10307132;28;20286;-25
2023/04/13 10:18:14;;;;;;;7.10;1.70;;;;;;;16.65;54.14;95744.34;10301950;28;20121;-26
2023/04/13 10:23:14;;;;;;;5.93;1.83;;;;;;;16.65;54.42;95734.22;10296098;28;20035;-26
2023/04/13 10:28:15;;;;;;;6.40;1.70;;;;;;;16.65;54.33;95736.75;10281884;28;20031;-24
2023/04/13 10:33:19;;;;;;;7.13;2.50;;;;;;;16.63;54.09;95730.84;10318887;28;20033;-25
2023/04/13 10:38:19;;;;;;;5.78;2.05;;;;;;;16.66;54.31;95713.16;10296518;28;20106;-25
2023/04/13 10:43:28;;;;;;;10.20;3.00;;;;;;;16.74;54.02;95708.88;10312581;28;20029;-25
2023/04/13 10:48:28;;;;;;;11.43;2.70;;;;;;;16.77;54.00;95693.66;10290231;28;20113;-26
2023/04/13 10:53:33;;;;;;;12.90;1.97;;;;;;;16.75;54.18;95700.44;10300110;28;20568;-25
2023/04/13 10:58:34;;;;;;;10.05;3.47;;;;;;;16.80;53.82;95698.69;10314310;28;20489;-26
2023/04/13 11:03:36;;;;;;;13.17;2.97;;;;;;;16.73;52.74;95701.28;10316436;28;20093;-25
2023/04/13 11:08:38;;;;;;;13.95;3.00;;;;;;;16.80;53.32;95693.63;10306257;28;20049;-26
2023/04/13 11:13:48;;;;;;;15.73;3.65;;;;;;;16.81;53.24;95685.22;10296098;28;20057;-26
2023/04/13 11:18:59;;;;;;;14.30;3.28;;;;;;;16.82;53.47;95692.75;10291389;28;20425;-25
2023/04/13 11:24:01;;;;;;;11.23;2.78;;;;;;;16.80;53.27;95699.53;10281740;28;20034;-25
2023/04/13 11:29:02;;;;;;;23.52;4.68;;;;;;;16.82;53.34;95697.00;10298993;28;20034;-25
2023/04/13 11:34:08;;;;;;;10.73;2.60;;;;;;;16.87;53.35;95695.25;10326162;28;20065;-25
2023/04/13 11:39:08;;;;;;;7.60;1.80;;;;;;;16.91;53.21;95676.69;10295412;28;20673;-26
2023/04/13 11:44:12;;;;;;;10.43;2.05;;;;;;;16.92;53.00;95678.34;10301234;28;20041;-25
2023/04/13 11:49:12;;;;;;;8.45;2.10;;;;;;;16.87;53.51;95669.97;10300920;28;20037;-25
2023/04/13 11:54:15;;;;;;;8.15;2.00;;;;;;;16.91;54.26;95662.34;10279420;28;20040;-25
2023/04/13 11:59:21;;;;;;;7.35;2.05;;;;;;;16.93;54.45;95662.31;10283935;28;20045;-25
2023/04/13 12:04:22;;;;;;;5.13;1.80;;;;;;;16.87;53.68;95649.75;10298344;28;20413;-25
2023/04/13 12:09:26;;;;;;;6.28;1.77;;;;;;;16.85;53.46;95641.34;10285484;28;20054;-25
2023/04/13 12:14:26;;;;;;;5.22;1.58;;;;;;;16.83;53.58;95643.06;10289366;28;20192;-25
2023/04/13 12:19:26;;;;;;;4.10;1.70;;;;;;;16.82;53.49;95674.25;10302307;28;20138;-25
2023/04/13 12:24:32;;;;;;;5.37;1.73;;;;;;;16.87;53.48;95725.56;10285354;28;20039;-25
2023/04/13 12:29:36;;;;;;;5.20;1.75;;;;;;;16.89;53.63;95749.19;10299364;28;20665;-25
2023/04/13 12:34:36;;;;;;;5.80;1.27;;;;;;;16.91;53.71;95787.91;10302939;28;20034;-25
2023/04/13 12:39:37;;;;;;;8.40;1.63;;;;;;;16.89;55.73;95792.16;10286873;28;20412;-25
2023/04/13 12:44:37;;;;;;;7.07;1.63;;;;;;;16.79;53.87;95786.31;10293781;28;20085;-25
2023/04/13 12:49:37;;;;;;;5.40;1.70;;;;;;;16.84;54.22;95782.03;10293962;28;20278;-25
2023/04/13 12:54:38;;;;;;;6.43;1.40;;;;;;;16.88;54.03;95776.13;10289658;28;20563;-26
2023/04/13 12:59:38;;;;;;;8.63;1.80;;;;;;;16.93;53.54;95763.44;10309530;28;20046;-25
2023/04/13 13:04:39;;;;;;;8.23;2.17;;;;;;;16.95;53.88;95759.22;10315293;28;20405;-25
2023/04/13 13:09:41;;;;;;;15.60;2.30;;;;;;;17.00;56.72;95760.00;10302696;28;20042;-25
2023/04/13 13:14:41;;;;;;;13.30;2.45;;;;;;;17.01;55.12;95754.97;10331254;28;20034;-25
2023/04/13 13:19:42;;;;;;;6.63;2.00;;;;;;;16.98;54.21;95731.38;10290891;28;20049;-28
2023/04/13 13:24:42;;;;;;;10.63;2.00;;;;;;;16.95;54.28;95723.81;10305238;28;20042;-25
2023/04/13 13:29:43;;;;;;;12.80;2.13;;;;;;;16.92;54.48;95733.97;10288556;28;20295;-26
2023/04/13 13:34:43;;;;;;;7.82;1.60;;;;;;;16.90;54.48;95721.34;10288312;28;20039;-25
2023/04/13 13:39:44;;;;;;;10.90;1.93;;;;;;;16.89;54.46;95713.78;10309982;28;20042;-25
2023/04/13 13:44:45;;;;;;;15.35;2.15;;;;;;;16.86;54.40;95708.75;10295761;28;20043;-25
2023/04/13 13:49:45;;;;;;;8.00;1.73;;;;;;;16.85;54.38;95707.91;10314543;28;20374;-25
2023/04/13 13:54:53;;;;;;;;;;;;;;;16.85;55.22;95702.88;10268128;28;20027;-25
2023/04/13 13:59:53;;;;;;;14.38;2.63;;;;;;;16.90;53.49;95695.22;10308342;28;19915;-25
2023/04/13 14:04:54;;;;;;;17.80;2.63;;;;;;;16.93;53.64;95702.78;10298259;28;20035;-25
2023/04/13 14:09:54;;;;;;;8.90;1.50;;;;;;;16.96;52.88;95706.13;10326508;28;20053;-25
2023/04/13 14:14:55;;;;;;;16.20;2.27;;;;;;;16.92;54.33;95709.50;10301787;28;20039;-25
2023/04/13 14:19:55;;;;;;;12.25;1.60;;;;;;;16.96;55.83;95700.19;10298319;28;20054;-25
2023/04/13 14:24:57;;;;;;;16.37;2.00;;;;;;;17.00;56.99;95682.47;10303342;28;20351;-25
2023/04/13 14:29:58;;;;;;;14.85;2.33;;;;;;;17.03;54.90;95681.59;10284861;28;20059;-25
2023/04/13 14:34:58;;;;;;;6.18;1.45;;;;;;;17.03;53.67;95686.66;10286855;28;20501;-25
2023/04/13 14:39:59;;;;;;;10.25;1.55;;;;;;;17.04;53.38;95689.16;10317974;28;20027;-25
2023/04/13 14:44:59;;;;;;;8.80;1.30;;;;;;;17.03;53.67;95686.66;10299482;28;20114;-25
2023/04/13 14:50:00;;;;;;;9.65;1.52;;;;;;;17.00;53.53;95689.22;10303400;28;20298;-25
2023/04/13 14:55:03;;;;;;;16.50;4.10;;;;;;;16.98;53.40;95693.47;10286158;28;20528;-25
2023/04/13 15:00:07;;;;;;;10.07;1.88;;;;;;;16.97;53.50;95695.16;10293100;28;20039;-25
2023/04/13 15:05:07;;;;;;;10.05;1.98;;;;;;;16.98;53.33;95688.41;10276829;28;20046;-25
2023/04/13 15:10:08;;;;;;;14.70;1.88;;;;;;;16.98;53.03;95699.34;10280037;28;20027;-25
2023/04/13 15:15:09;;;;;;;9.07;1.67;;;;;;;16.98;53.76;95708.63;10305239;28;20311;-25
2023/04/13 15:20:10;;;;;;;15.52;2.80;;;;;;;16.96;53.31;95696.00;10297527;28;20301;-25
2023/04/13 15:25:11;;;;;;;10.70;1.95;;;;;;;16.95;53.10;95685.88;10306600;28;20038;-25
2023/04/13 15:30:11;;;;;;;11.98;1.85;;;;;;;16.96;53.36;95687.56;10297592;28;20041;-25
2023/04/13 15:35:12;;;;;;;13.45;2.97;;;;;;;17.06;56.66;95689.16;10308547;28;20062;-25
2023/04/13 15:40:13;;;;;;;18.05;4.63;;;;;;;17.10;55.36;95700.91;10306004;28;20034;-25
2023/04/13 15:45:13;;;;;;;8.23;1.23;;;;;;;17.10;53.17;95698.38;10307355;28;20034;-25
2023/04/13 15:50:14;;;;;;;12.45;2.35;;;;;;;17.11;53.32;95705.97;10304331;28;20039;-25
2023/04/13 15:55:14;;;;;;;14.73;2.53;;;;;;;17.10;53.50;95708.50;10304806;28;20122;-25
2023/04/13 16:00:15;;;;;;;15.63;1.70;;;;;;;16.90;53.53;95710.41;10292505;28;20035;-25
2023/04/13 16:05:17;;;;;;;7.32;1.85;;;;;;;17.00;53.55;95706.91;10299102;28;20779;-25
2023/04/13 16:10:18;;;;;;;12.70;2.05;;;;;;;17.07;53.67;95711.88;10307616;28;20054;-25
2023/04/13 16:15:21;;;;;;;10.57;1.48;;;;;;;17.03;55.05;95711.94;10299868;28;20045;-25
2023/04/13 16:20:22;;;;;;;10.00;1.90;;;;;;;17.03;54.33;95711.94;10297524;28;20404;-25
2023/04/13 16:25:22;;;;;;;7.35;1.88;;;;;;;17.02;54.32;95720.38;10307435;28;20110;-25
2023/04/13 16:30:23;;;;;;;8.73;1.40;;;;;;;17.03;53.90;95724.56;10279667;28;20030;-26
2023/04/13 16:35:23;;;;;;;7.18;1.35;;;;;;;17.05;54.62;95730.44;10300975;28;20037;-25
2023/04/13 16:40:24;;;;;;;5.80;1.65;;;;;;;17.04;54.24;95733.84;10294732;28;20042;-26
2023/04/13 16:45:24;;;;;;;10.15;2.25;;;;;;;17.05;54.38;95726.25;10298146;28;20046;-25
2023/04/13 16:50:27;;;;;;;7.03;1.92;;;;;;;17.10;57.70;95724.53;10297138;28;20031;-25
2023/04/13 16:55:28;;;;;;;19.48;2.70;;;;;;;17.14;55.98;95722.78;10302956;28;20069;-25
2023/04/13 17:00:28;;;;;;;7.28;1.55;;;;;;;17.11;55.23;95725.34;10304886;28;20112;-26
2023/04/13 17:05:30;;;;;;;7.77;1.83;;;;;;;17.11;55.15;95731.25;10297114;28;20038;-25
2023/04/13 17:10:31;;;;;;;4.78;1.33;;;;;;;17.08;54.79;95736.31;10303691;28;20401;-25
2023/04/13 17:15:31;;;;;;;8.77;1.63;;;;;;;17.09;54.61;95742.22;10309277;28;20033;-25
2023/04/13 17:20:31;;;;;;;7.00;1.30;;;;;;;17.10;54.04;95739.69;10291908;28;20039;-25
2023/04/13 17:25:33;;;;;;;3.53;1.07;;;;;;;17.17;55.18;95745.50;10278428;28;20050;-25
2023/04/13 17:30:34;;;;;;;5.20;2.10;;;;;;;17.15;53.71;95737.13;10302366;28;20030;-25
2023/04/13 17:35:34;;;;;;;4.65;1.35;;;;;;;17.12;53.62;95747.22;10296705;28;20041;-25
2023/04/13 17:40:35;;;;;;;6.47;2.30;;;;;;;17.12;53.61;95753.16;10309357;28;20119;-25
2023/04/13 17:45:35;;;;;;;4.80;1.13;;;;;;;17.11;53.52;95755.69;10300901;28;20046;-25
2023/04/13 17:50:35;;;;;;;5.10;1.37;;;;;;;17.10;53.49;95757.38;10300750;28;20037;-25
2023/04/13 17:55:39;;;;;;;3.83;1.03;;;;;;;17.11;53.45;95765.78;10306031;28;20289;-25
2023/04/13 18:00:39;;;;;;;4.22;1.00;;;;;;;17.15;53.93;95772.53;10310193;28;20042;-25
2023/04/13 18:05:43;;;;;;;10.57;2.73;;;;;;;17.14;58.18;95769.13;10309024;28;20496;-26
2023/04/13 18:10:43;;;;;;;6.20;1.27;;;;;;;17.13;54.41;95770.00;10298231;28;20333;-25
2023/04/13 18:15:47;;;;;;;1.80;0.97;;;;;;;17.10;54.00;95782.69;10315147;28;20109;-25
2023/04/13 18:20:47;;;;;;;2.58;0.80;;;;;;;17.07;53.79;95786.91;10299262;28;20297;-25
2023/04/13 18:25:48;;;;;;;4.43;1.00;;;;;;;17.08;53.54;95803.75;10316121;28;20437;-26
2023/04/13 18:30:48;;;;;;;5.85;1.15;;;;;;;17.10;53.89;95809.63;10311946;28;20030;-25
2023/04/13 18:35:49;;;;;;;3.90;0.87;;;;;;;17.10;54.09;95814.69;10305041;28;20039;-26
2023/04/13 18:40:49;;;;;;;2.85;0.95;;;;;;;17.00;55.32;95813.13;10309950;28;20038;-25
2023/04/13 18:45:50;;;;;;;1.95;0.80;;;;;;;17.00;53.57;95823.22;10300522;28;20524;-26
2023/04/13 18:50:50;;;;;;;2.28;1.30;;;;;;;17.05;53.44;95822.31;10288087;28;20992;-25
2023/04/13 18:55:51;;;;;;;4.20;1.33;;;;;;;17.05;53.76;95826.53;10295046;28;20076;-26
2023/04/13 19:00:51;;;;;;;4.32;1.73;;;;;;;17.03;53.71;95834.16;10297163;28;20524;-25
2023/04/13 19:05:52;;;;;;;3.28;0.65;;;;;;;17.02;53.46;95841.75;10299766;28;20490;-25
2023/04/13 19:10:52;;;;;;;10.40;1.57;;;;;;;17.06;58.81;95848.47;10293566;28;20391;-25
2023/04/13 19:15:53;;;;;;;6.93;1.70;;;;;;;17.07;59.78;95840.03;10294140;28;20497;-25
2023/04/13 19:20:55;;;;;;;3.42;1.20;;;;;;;17.06;57.37;95856.06;10286446;28;20516;-25
2023/04/13 19:25:55;;;;;;;5.13;1.40;;;;;;;17.06;54.73;95863.63;10313979;28;20042;-26
2023/04/13 19:30:56;;;;;;;2.67;1.00;;;;;;;17.05;54.60;95856.88;10284764;28;20051;-25
2023/04/13 19:35:58;;;;;;;3.83;1.30;;;;;;;17.03;54.81;95861.13;10282059;28;20321;-25
2023/04/13 19:40:58;;;;;;;5.65;1.42;;;;;;;17.00;54.05;95861.97;10314829;28;20305;-25
2023/04/13 19:45:59;;;;;;;2.90;1.02;;;;;;;17.02;54.78;95864.50;10261927;28;20035;-25
2023/04/13 19:51:00;;;;;;;4.90;0.97;;;;;;;17.03;54.72;95867.03;10281176;28;20500;-25
2023/04/13 19:56:01;;;;;;;4.05;0.85;;;;;;;17.04;55.19;95867.84;10292965;28;20039;-25
2023/04/13 20:01:03;;;;;;;3.90;1.00;;;;;;;17.02;54.97;95861.97;10303431;28;20457;-26
2023/04/13 20:06:04;;;;;;;2.30;1.00;;;;;;;17.02;54.55;95861.97;10300550;28;20077;-25
2023/04/13 20:11:05;;;;;;;3.42;0.82;;;;;;;17.03;55.17;95861.13;10301968;28;20030;-25
2023/04/13 20:16:06;;;;;;;3.42;1.10;;;;;;;17.03;55.55;95868.69;10303329;28;20065;-25
2023/04/13 20:21:07;;;;;;;1.70;0.68;;;;;;;17.03;55.39;95866.16;10286615;28;20042;-25
2023/04/13 20:26:07;;;;;;;5.00;1.20;;;;;;;17.05;60.34;95862.78;10291744;28;20035;-25
2023/04/13 20:31:07;;;;;;;3.00;0.80;;;;;;;17.06;60.52;95869.53;10294877;28;20290;-25
2023/04/13 20:36:08;;;;;;;3.93;1.07;;;;;;;17.04;56.41;95867.84;10294137;28;20027;-25
2023/04/13 20:41:12;;;;;;;3.97;1.53;;;;;;;17.06;56.13;95863.63;10306868;28;20293;-25
2023/04/13 20:46:15;;;;;;;2.55;0.90;;;;;;;17.04;57.15;95862.78;10308571;28;20066;-25
2023/04/13 20:51:16;;;;;;;1.52;0.68;;;;;;;17.04;56.65;95873.75;10310249;28;20125;-25
2023/04/13 20:56:17;;;;;;;1.67;0.82;;;;;;;17.02;57.50;95874.59;10312124;28;20121;-25
2023/04/13 21:01:19;;;;;;;2.85;0.85;;;;;;;17.00;57.24;95871.25;10307253;28;20556;-26
2023/04/13 21:06:21;;;;;;;4.25;1.10;;;;;;;16.96;60.42;95879.72;10306548;28;20121;-25
2023/04/13 21:11:21;;;;;;;2.08;0.95;;;;;;;16.96;60.29;95883.09;10296469;28;20405;-25
2023/04/13 21:16:24;;;;;;;5.87;1.70;;;;;;;16.94;59.28;95886.47;10310574;28;20038;-25
2023/04/13 21:21:26;;;;;;;5.28;1.05;;;;;;;16.93;60.26;95882.28;10317221;28;20551;-25
2023/04/13 21:26:26;;;;;;;2.53;0.93;;;;;;;16.93;59.56;95884.78;10315125;28;20402;-25
2023/04/13 21:31:27;;;;;;;1.70;0.68;;;;;;;16.92;60.24;95890.72;10296631;28;20034;-25
2023/04/13 21:36:27;;;;;;;4.80;0.88;;;;;;;16.93;61.05;95887.31;10298183;28;20045;-25
2023/04/13 21:41:28;;;;;;;7.07;1.20;;;;;;;16.90;61.01;95877.25;10301461;28;20038;-25
2023/04/13 21:46:28;;;;;;;4.37;1.63;;;;;;;16.95;60.47;95880.56;10309303;28;20109;-25
2023/04/13 21:51:28;;;;;;;2.97;1.13;;;;;;;16.91;59.93;95889.03;10297485;28;20142;-25
2023/04/13 21:56:31;;;;;;;7.40;1.25;;;;;;;16.93;60.22;95887.31;10314668;28;20031;-25
2023/04/13 22:01:31;;;;;;;5.32;1.38;;;;;;;16.90;60.38;95888.19;10311255;28;20062;-25
2023/04/13 22:06:32;;;;;;;2.80;0.80;;;;;;;16.90;60.10;95888.19;10292812;28;20513;-25
2023/04/13 22:11:32;;;;;;;3.33;1.30;;;;;;;16.86;60.45;95884.00;10320114;28;20030;-25
2023/04/13 22:16:33;;;;;;;4.30;1.00;;;;;;;16.87;59.07;95893.28;10322081;28;20540;-25
2023/04/13 22:21:35;;;;;;;4.07;1.10;;;;;;;16.89;60.36;95893.28;10287150;28;20031;-25
2023/04/13 22:26:35;;;;;;;6.68;1.42;;;;;;;16.90;59.75;95892.41;10291967;28;20126;-25
2023/04/13 22:31:35;;;;;;;7.50;1.10;;;;;;;16.80;60.54;95879.00;10310405;28;20297;-25
2023/04/13 22:36:36;;;;;;;3.33;0.80;;;;;;;16.86;60.60;95890.75;10293779;28;20293;-25
2023/04/13 22:41:36;;;;;;;3.72;1.10;;;;;;;16.87;59.64;95894.94;10315310;28;20038;-25
2023/04/13 22:46:37;;;;;;;5.28;1.20;;;;;;;16.85;60.29;95899.19;10293798;28;20071;-26
2023/04/13 22:51:38;;;;;;;5.97;1.30;;;;;;;16.90;61.01;95892.41;10304413;28;20030;-25
2023/04/13 22:56:38;;;;;;;6.60;1.25;;;;;;;16.90;60.57;95902.53;10302843;28;20047;-25
2023/04/13 23:01:39;;;;;;;3.30;0.83;;;;;;;16.89;60.20;95903.38;10307160;28;20043;-25
2023/04/13 23:06:39;;;;;;;6.77;1.13;;;;;;;16.85;57.94;95909.28;10282527;28;20039;-25
2023/04/13 23:11:39;;;;;;;9.43;1.30;;;;;;;16.85;59.16;95915.19;10302727;28;20282;-25
2023/04/13 23:16:40;;;;;;;5.37;1.10;;;;;;;16.85;59.18;95919.41;10288373;28;20293;-25
2023/04/13 23:21:40;;;;;;;3.93;1.00;;;;;;;16.85;60.56;95929.50;10284866;28;20482;-25
2023/04/13 23:26:40;;;;;;;4.73;1.00;;;;;;;16.82;60.34;95932.06;10298084;28;20034;-25